sensor_id;sensor_type;location;lat;lon;timestamp;temperature;humidity
11647;DHT22;5880;52.342;9.662;2022-08-01T00:01:24;22.70;69.70
11647;DHT22;5880;52.342;9.662;2022-08-01T00:03:50;22.70;70.50
11647;DHT22;5880;52.342;9.662;2022-08-01T00:06:16;22.70;69.80
11647;DHT22;5880;52.342;9.662;2022-08-01T00:08:42;22.70;69.80
11647;DHT22;5880;52.342;9.662;2022-08-01T00:11:07;22.70;69.80
11647;DHT22;5880;52.342;9.662;2022-08-01T00:13:34;22.70;69.90
11647;DHT22;5880;52.342;9.662;2022-08-01T00:16:00;22.70;69.90
11647;DHT22;5880;52.342;9.662;2022-08-01T00:18:26;22.80;69.90
11647;DHT22;5880;52.342;9.662;2022-08-01T00:20:52;22.70;69.90
11647;DHT22;5880;52.342;9.662;2022-08-01T00:23:17;22.70;70.00
11647;DHT22;5880;52.342;9.662;2022-08-01T00:25:43;22.70;70.00
11647;DHT22;5880;52.342;9.662;2022-08-01T00:28:09;22.80;70.00
11647;DHT22;5880;52.342;9.662;2022-08-01T00:30:35;22.80;70.00
11647;DHT22;5880;52.342;9.662;2022-08-01T00:33:02;22.80;70.00
11647;DHT22;5880;52.342;9.662;2022-08-01T00:35:27;22.80;70.00
11647;DHT22;5880;52.342;9.662;2022-08-01T00:37:53;22.80;69.90
11647;DHT22;5880;52.342;9.662;2022-08-01T00:40:19;22.80;70.00
11647;DHT22;5880;52.342;9.662;2022-08-01T00:42:44;22.70;70.00
11647;DHT22;5880;52.342;9.662;2022-08-01T00:45:11;22.80;70.00
11647;DHT22;5880;52.342;9.662;2022-08-01T00:47:37;22.70;70.00
11647;DHT22;5880;52.342;9.662;2022-08-01T00:50:06;22.70;70.10
11647;DHT22;5880;52.342;9.662;2022-08-01T00:52:33;22.70;70.50
11647;DHT22;5880;52.342;9.662;2022-08-01T00:54:59;22.70;70.30
11647;DHT22;5880;52.342;9.662;2022-08-01T00:57:25;22.70;70.40
11647;DHT22;5880;52.342;9.662;2022-08-01T00:59:52;22.70;70.40
11647;DHT22;5880;52.342;9.662;2022-08-01T01:02:18;22.70;70.50
11647;DHT22;5880;52.342;9.662;2022-08-01T01:04:44;22.70;70.40
11647;DHT22;5880;52.342;9.662;2022-08-01T01:07:21;22.70;70.50
11647;DHT22;5880;52.342;9.662;2022-08-01T01:13:05;22.70;71.30
11647;DHT22;5880;52.342;9.662;2022-08-01T01:15:51;22.70;71.60
11647;DHT22;5880;52.342;9.662;2022-08-01T01:18:30;22.80;71.40
11647;DHT22;5880;52.342;9.662;2022-08-01T01:29:30;22.80;71.30
11647;DHT22;5880;52.342;9.662;2022-08-01T01:32:14;22.70;71.20
11647;DHT22;5880;52.342;9.662;2022-08-01T01:34:44;22.60;71.30
11647;DHT22;5880;52.342;9.662;2022-08-01T01:37:17;22.70;70.60
11647;DHT22;5880;52.342;9.662;2022-08-01T01:39:46;22.70;70.90
11647;DHT22;5880;52.342;9.662;2022-08-01T01:42:15;22.80;70.70
11647;DHT22;5880;52.342;9.662;2022-08-01T01:44:44;22.60;70.50
11647;DHT22;5880;52.342;9.662;2022-08-01T01:47:12;22.60;70.70
11647;DHT22;5880;52.342;9.662;2022-08-01T01:49:40;22.60;70.80
11647;DHT22;5880;52.342;9.662;2022-08-01T01:52:09;22.60;70.70
11647;DHT22;5880;52.342;9.662;2022-08-01T01:54:40;22.60;70.70
11647;DHT22;5880;52.342;9.662;2022-08-01T01:57:12;22.60;70.90
11647;DHT22;5880;52.342;9.662;2022-08-01T01:59:41;22.60;70.70
11647;DHT22;5880;52.342;9.662;2022-08-01T02:02:10;22.60;70.60
11647;DHT22;5880;52.342;9.662;2022-08-01T02:04:43;22.60;70.70
11647;DHT22;5880;52.342;9.662;2022-08-01T02:07:13;22.50;70.70
11647;DHT22;5880;52.342;9.662;2022-08-01T02:09:43;22.60;70.80
11647;DHT22;5880;52.342;9.662;2022-08-01T02:12:12;22.50;70.70
11647;DHT22;5880;52.342;9.662;2022-08-01T02:14:42;22.60;70.60
11647;DHT22;5880;52.342;9.662;2022-08-01T02:17:12;22.50;70.60
11647;DHT22;5880;52.342;9.662;2022-08-01T02:19:41;22.50;70.70
11647;DHT22;5880;52.342;9.662;2022-08-01T02:22:14;22.40;70.50
11647;DHT22;5880;52.342;9.662;2022-08-01T02:25:27;22.50;71.00
11647;DHT22;5880;52.342;9.662;2022-08-01T02:28:03;22.50;71.70
11647;DHT22;5880;52.342;9.662;2022-08-01T02:30:33;22.40;70.60
11647;DHT22;5880;52.342;9.662;2022-08-01T02:33:07;22.40;70.70
11647;DHT22;5880;52.342;9.662;2022-08-01T02:35:38;22.30;70.80
11647;DHT22;5880;52.342;9.662;2022-08-01T02:38:10;22.30;70.70
11647;DHT22;5880;52.342;9.662;2022-08-01T02:40:42;22.30;71.00
11647;DHT22;5880;52.342;9.662;2022-08-01T02:43:12;22.30;71.00
11647;DHT22;5880;52.342;9.662;2022-08-01T02:45:43;22.20;71.00
11647;DHT22;5880;52.342;9.662;2022-08-01T02:48:14;22.20;71.30
11647;DHT22;5880;52.342;9.662;2022-08-01T02:50:47;22.20;71.10
11647;DHT22;5880;52.342;9.662;2022-08-01T02:53:16;22.20;71.10
11647;DHT22;5880;52.342;9.662;2022-08-01T02:55:45;22.20;71.30
11647;DHT22;5880;52.342;9.662;2022-08-01T02:58:14;22.20;71.10
11647;DHT22;5880;52.342;9.662;2022-08-01T03:00:43;22.20;71.30
11647;DHT22;5880;52.342;9.662;2022-08-01T03:03:11;22.20;71.30
11647;DHT22;5880;52.342;9.662;2022-08-01T03:05:39;22.20;71.10
11647;DHT22;5880;52.342;9.662;2022-08-01T03:08:08;22.20;71.10
11647;DHT22;5880;52.342;9.662;2022-08-01T03:10:37;22.20;71.20
11647;DHT22;5880;52.342;9.662;2022-08-01T03:13:07;22.10;71.30
11647;DHT22;5880;52.342;9.662;2022-08-01T03:15:37;22.10;71.30
11647;DHT22;5880;52.342;9.662;2022-08-01T03:18:07;22.10;71.40
11647;DHT22;5880;52.342;9.662;2022-08-01T03:20:35;22.00;71.30
11647;DHT22;5880;52.342;9.662;2022-08-01T03:23:04;22.00;71.30
11647;DHT22;5880;52.342;9.662;2022-08-01T03:25:33;21.90;71.70
11647;DHT22;5880;52.342;9.662;2022-08-01T03:28:03;21.90;71.60
11647;DHT22;5880;52.342;9.662;2022-08-01T03:30:32;21.90;71.80
11647;DHT22;5880;52.342;9.662;2022-08-01T03:33:01;21.90;71.80
11647;DHT22;5880;52.342;9.662;2022-08-01T03:35:31;21.90;71.70
11647;DHT22;5880;52.342;9.662;2022-08-01T03:38:02;21.90;72.20
11647;DHT22;5880;52.342;9.662;2022-08-01T03:40:41;21.90;71.90
11647;DHT22;5880;52.342;9.662;2022-08-01T03:43:20;21.90;72.70
11647;DHT22;5880;52.342;9.662;2022-08-01T03:45:53;21.90;72.40
11647;DHT22;5880;52.342;9.662;2022-08-01T03:48:26;21.90;71.90
11647;DHT22;5880;52.342;9.662;2022-08-01T03:50:55;21.80;72.00
11647;DHT22;5880;52.342;9.662;2022-08-01T03:53:26;21.80;72.00
11647;DHT22;5880;52.342;9.662;2022-08-01T03:55:56;21.90;72.30
11647;DHT22;5880;52.342;9.662;2022-08-01T03:58:27;21.80;71.90
11647;DHT22;5880;52.342;9.662;2022-08-01T04:00:55;21.80;71.90
11647;DHT22;5880;52.342;9.662;2022-08-01T04:03:22;21.80;71.90
11647;DHT22;5880;52.342;9.662;2022-08-01T04:05:48;21.80;72.00
11647;DHT22;5880;52.342;9.662;2022-08-01T04:08:14;21.80;71.90
11647;DHT22;5880;52.342;9.662;2022-08-01T04:10:40;21.80;72.00
11647;DHT22;5880;52.342;9.662;2022-08-01T04:13:05;21.80;72.10
11647;DHT22;5880;52.342;9.662;2022-08-01T04:15:31;21.90;72.10
11647;DHT22;5880;52.342;9.662;2022-08-01T04:17:57;21.80;72.00
11647;DHT22;5880;52.342;9.662;2022-08-01T04:20:22;21.80;72.00
11647;DHT22;5880;52.342;9.662;2022-08-01T04:22:48;21.90;72.10
11647;DHT22;5880;52.342;9.662;2022-08-01T04:25:21;21.90;72.10
11647;DHT22;5880;52.342;9.662;2022-08-01T04:27:53;21.90;72.30
11647;DHT22;5880;52.342;9.662;2022-08-01T04:30:25;21.80;72.00
11647;DHT22;5880;52.342;9.662;2022-08-01T04:32:54;21.90;72.40
11647;DHT22;5880;52.342;9.662;2022-08-01T04:35:24;21.80;72.30
11647;DHT22;5880;52.342;9.662;2022-08-01T04:37:52;21.90;72.40
11647;DHT22;5880;52.342;9.662;2022-08-01T04:40:19;21.90;72.40
11647;DHT22;5880;52.342;9.662;2022-08-01T04:42:48;21.80;72.30
11647;DHT22;5880;52.342;9.662;2022-08-01T04:45:15;21.80;72.40
11647;DHT22;5880;52.342;9.662;2022-08-01T04:47:42;21.90;72.60
11647;DHT22;5880;52.342;9.662;2022-08-01T04:50:09;21.90;72.80
11647;DHT22;5880;52.342;9.662;2022-08-01T04:52:37;21.90;72.70
11647;DHT22;5880;52.342;9.662;2022-08-01T04:55:05;21.90;72.80
11647;DHT22;5880;52.342;9.662;2022-08-01T04:57:36;21.90;72.90
11647;DHT22;5880;52.342;9.662;2022-08-01T05:00:05;21.90;72.70
11647;DHT22;5880;52.342;9.662;2022-08-01T05:02:33;21.90;72.60
11647;DHT22;5880;52.342;9.662;2022-08-01T05:04:59;22.00;72.60
11647;DHT22;5880;52.342;9.662;2022-08-01T05:07:25;22.00;72.50
11647;DHT22;5880;52.342;9.662;2022-08-01T05:09:51;22.00;72.50
11647;DHT22;5880;52.342;9.662;2022-08-01T05:12:16;22.00;72.40
11647;DHT22;5880;52.342;9.662;2022-08-01T05:14:43;22.00;72.50
11647;DHT22;5880;52.342;9.662;2022-08-01T05:17:10;22.00;72.40
11647;DHT22;5880;52.342;9.662;2022-08-01T05:19:37;22.00;72.50
11647;DHT22;5880;52.342;9.662;2022-08-01T05:22:06;22.00;72.50
11647;DHT22;5880;52.342;9.662;2022-08-01T05:24:36;21.90;72.80
11647;DHT22;5880;52.342;9.662;2022-08-01T05:27:03;22.00;72.90
11647;DHT22;5880;52.342;9.662;2022-08-01T05:29:31;22.00;72.70
11647;DHT22;5880;52.342;9.662;2022-08-01T05:31:57;22.00;72.60
11647;DHT22;5880;52.342;9.662;2022-08-01T05:34:24;22.10;72.80
11647;DHT22;5880;52.342;9.662;2022-08-01T05:36:51;22.00;72.70
11647;DHT22;5880;52.342;9.662;2022-08-01T05:39:16;22.00;72.90
11647;DHT22;5880;52.342;9.662;2022-08-01T05:41:42;22.00;73.00
11647;DHT22;5880;52.342;9.662;2022-08-01T05:44:08;22.00;73.10
11647;DHT22;5880;52.342;9.662;2022-08-01T05:46:35;22.00;73.20
11647;DHT22;5880;52.342;9.662;2022-08-01T05:49:02;22.10;73.30
11647;DHT22;5880;52.342;9.662;2022-08-01T05:51:29;22.10;73.40
11647;DHT22;5880;52.342;9.662;2022-08-01T05:53:55;22.10;73.40
11647;DHT22;5880;52.342;9.662;2022-08-01T05:56:21;22.10;73.20
11647;DHT22;5880;52.342;9.662;2022-08-01T05:58:48;22.20;73.00
11647;DHT22;5880;52.342;9.662;2022-08-01T06:01:15;22.20;73.10
11647;DHT22;5880;52.342;9.662;2022-08-01T06:03:42;22.20;73.10
11647;DHT22;5880;52.342;9.662;2022-08-01T06:06:07;22.20;73.10
11647;DHT22;5880;52.342;9.662;2022-08-01T06:08:33;22.20;73.20
11647;DHT22;5880;52.342;9.662;2022-08-01T06:10:59;22.20;73.40
11647;DHT22;5880;52.342;9.662;2022-08-01T06:13:24;22.30;73.50
11647;DHT22;5880;52.342;9.662;2022-08-01T06:15:50;22.50;73.70
11647;DHT22;5880;52.342;9.662;2022-08-01T06:18:16;22.30;73.50
11647;DHT22;5880;52.342;9.662;2022-08-01T06:20:43;22.40;73.50
11647;DHT22;5880;52.342;9.662;2022-08-01T06:23:09;22.40;73.50
11647;DHT22;5880;52.342;9.662;2022-08-01T06:25:35;22.40;73.50
11647;DHT22;5880;52.342;9.662;2022-08-01T06:28:00;22.50;73.50
11647;DHT22;5880;52.342;9.662;2022-08-01T06:30:26;22.50;73.40
11647;DHT22;5880;52.342;9.662;2022-08-01T06:32:52;22.50;73.30
11647;DHT22;5880;52.342;9.662;2022-08-01T06:35:21;22.50;73.10
11647;DHT22;5880;52.342;9.662;2022-08-01T06:37:46;22.50;72.70
11647;DHT22;5880;52.342;9.662;2022-08-01T06:40:13;22.30;72.40
11647;DHT22;5880;52.342;9.662;2022-08-01T06:42:39;22.50;72.40
11647;DHT22;5880;52.342;9.662;2022-08-01T06:45:05;22.40;72.10
11647;DHT22;5880;52.342;9.662;2022-08-01T06:47:32;22.40;72.10
11647;DHT22;5880;52.342;9.662;2022-08-01T06:49:58;22.30;72.10
11647;DHT22;5880;52.342;9.662;2022-08-01T06:52:25;22.30;72.20
11647;DHT22;5880;52.342;9.662;2022-08-01T06:54:51;22.30;72.40
11647;DHT22;5880;52.342;9.662;2022-08-01T06:57:17;22.20;72.40
11647;DHT22;5880;52.342;9.662;2022-08-01T06:59:42;22.20;72.50
11647;DHT22;5880;52.342;9.662;2022-08-01T07:02:09;22.20;72.60
11647;DHT22;5880;52.342;9.662;2022-08-01T07:04:34;22.20;72.90
11647;DHT22;5880;52.342;9.662;2022-08-01T07:07:00;22.20;73.30
11647;DHT22;5880;52.342;9.662;2022-08-01T07:09:26;22.20;73.20
11647;DHT22;5880;52.342;9.662;2022-08-01T07:11:53;22.20;73.30
11647;DHT22;5880;52.342;9.662;2022-08-01T07:14:20;22.20;73.50
11647;DHT22;5880;52.342;9.662;2022-08-01T07:16:46;22.30;73.70
11647;DHT22;5880;52.342;9.662;2022-08-01T07:19:13;22.30;73.60
11647;DHT22;5880;52.342;9.662;2022-08-01T07:21:39;22.40;73.50
11647;DHT22;5880;52.342;9.662;2022-08-01T07:24:06;22.40;73.50
11647;DHT22;5880;52.342;9.662;2022-08-01T07:26:33;22.40;73.50
11647;DHT22;5880;52.342;9.662;2022-08-01T07:28:59;22.50;73.70
11647;DHT22;5880;52.342;9.662;2022-08-01T07:31:24;22.50;73.70
11647;DHT22;5880;52.342;9.662;2022-08-01T07:33:50;22.60;73.70
11647;DHT22;5880;52.342;9.662;2022-08-01T07:36:17;22.60;73.50
11647;DHT22;5880;52.342;9.662;2022-08-01T07:38:43;22.60;73.30
11647;DHT22;5880;52.342;9.662;2022-08-01T07:41:09;22.60;73.30
11647;DHT22;5880;52.342;9.662;2022-08-01T07:43:35;22.70;73.30
11647;DHT22;5880;52.342;9.662;2022-08-01T07:46:02;22.70;73.30
11647;DHT22;5880;52.342;9.662;2022-08-01T07:48:31;22.70;73.30
11647;DHT22;5880;52.342;9.662;2022-08-01T07:50:57;22.70;73.20
11647;DHT22;5880;52.342;9.662;2022-08-01T07:53:23;22.80;73.00
11647;DHT22;5880;52.342;9.662;2022-08-01T07:55:49;22.80;72.90
11647;DHT22;5880;52.342;9.662;2022-08-01T07:58:15;22.80;72.80
11647;DHT22;5880;52.342;9.662;2022-08-01T08:00:42;22.80;72.80
11647;DHT22;5880;52.342;9.662;2022-08-01T08:03:08;22.80;72.90
11647;DHT22;5880;52.342;9.662;2022-08-01T08:05:34;22.90;73.00
11647;DHT22;5880;52.342;9.662;2022-08-01T08:08:05;22.90;72.50
11647;DHT22;5880;52.342;9.662;2022-08-01T08:10:31;22.90;72.30
11647;DHT22;5880;52.342;9.662;2022-08-01T08:12:57;22.90;71.90
11647;DHT22;5880;52.342;9.662;2022-08-01T08:15:23;22.90;71.70
11647;DHT22;5880;52.342;9.662;2022-08-01T08:17:48;22.80;71.40
11647;DHT22;5880;52.342;9.662;2022-08-01T08:20:14;22.80;71.30
11647;DHT22;5880;52.342;9.662;2022-08-01T08:22:40;22.80;71.50
11647;DHT22;5880;52.342;9.662;2022-08-01T08:25:06;22.80;71.50
11647;DHT22;5880;52.342;9.662;2022-08-01T08:27:33;22.80;71.70
11647;DHT22;5880;52.342;9.662;2022-08-01T08:29:58;22.70;71.90
11647;DHT22;5880;52.342;9.662;2022-08-01T08:32:24;22.90;71.90
11647;DHT22;5880;52.342;9.662;2022-08-01T08:34:50;22.80;71.90
11647;DHT22;5880;52.342;9.662;2022-08-01T08:37:16;22.80;71.90
11647;DHT22;5880;52.342;9.662;2022-08-01T08:39:42;22.90;71.90
11647;DHT22;5880;52.342;9.662;2022-08-01T08:42:10;22.90;71.80
11647;DHT22;5880;52.342;9.662;2022-08-01T08:44:37;22.90;71.70
11647;DHT22;5880;52.342;9.662;2022-08-01T08:47:06;23.00;71.70
11647;DHT22;5880;52.342;9.662;2022-08-01T08:49:33;23.00;71.50
11647;DHT22;5880;52.342;9.662;2022-08-01T08:52:01;23.00;71.50
11647;DHT22;5880;52.342;9.662;2022-08-01T08:54:29;23.10;71.60
11647;DHT22;5880;52.342;9.662;2022-08-01T08:56:56;23.10;71.60
11647;DHT22;5880;52.342;9.662;2022-08-01T08:59:23;23.20;71.80
11647;DHT22;5880;52.342;9.662;2022-08-01T09:01:50;23.30;72.00
11647;DHT22;5880;52.342;9.662;2022-08-01T09:04:17;23.30;71.40
11647;DHT22;5880;52.342;9.662;2022-08-01T09:06:43;23.40;71.20
11647;DHT22;5880;52.342;9.662;2022-08-01T09:09:09;23.40;71.00
11647;DHT22;5880;52.342;9.662;2022-08-01T09:11:36;23.40;70.40
11647;DHT22;5880;52.342;9.662;2022-08-01T09:16:40;23.40;70.00
11647;DHT22;5880;52.342;9.662;2022-08-01T09:19:19;23.40;70.50
11647;DHT22;5880;52.342;9.662;2022-08-01T09:24:26;23.40;68.90
11647;DHT22;5880;52.342;9.662;2022-08-01T09:26:53;23.30;69.40
11647;DHT22;5880;52.342;9.662;2022-08-01T09:29:22;23.30;69.60
11647;DHT22;5880;52.342;9.662;2022-08-01T09:31:50;23.20;69.30
11647;DHT22;5880;52.342;9.662;2022-08-01T09:34:27;23.20;69.50
11647;DHT22;5880;52.342;9.662;2022-08-01T09:37:00;23.20;69.50
11647;DHT22;5880;52.342;9.662;2022-08-01T09:39:28;23.10;69.50
11647;DHT22;5880;52.342;9.662;2022-08-01T09:42:01;23.10;69.60
11647;DHT22;5880;52.342;9.662;2022-08-01T09:44:44;23.20;69.70
11647;DHT22;5880;52.342;9.662;2022-08-01T09:47:12;23.10;69.80
11647;DHT22;5880;52.342;9.662;2022-08-01T09:49:40;23.10;70.10
11647;DHT22;5880;52.342;9.662;2022-08-01T09:52:15;23.10;70.30
11647;DHT22;5880;52.342;9.662;2022-08-01T09:54:44;23.10;70.50
11647;DHT22;5880;52.342;9.662;2022-08-01T09:57:19;23.20;70.60
11647;DHT22;5880;52.342;9.662;2022-08-01T09:59:47;23.20;70.30
11647;DHT22;5880;52.342;9.662;2022-08-01T10:02:33;23.30;70.00
11647;DHT22;5880;52.342;9.662;2022-08-01T10:05:03;23.40;68.90
11647;DHT22;5880;52.342;9.662;2022-08-01T10:07:31;23.40;69.30
11647;DHT22;5880;52.342;9.662;2022-08-01T10:10:14;23.40;69.40
11647;DHT22;5880;52.342;9.662;2022-08-01T10:12:41;23.40;68.50
11647;DHT22;5880;52.342;9.662;2022-08-01T10:15:08;23.50;69.40
11647;DHT22;5880;52.342;9.662;2022-08-01T10:17:38;23.50;69.10
11647;DHT22;5880;52.342;9.662;2022-08-01T10:20:06;23.50;68.70
11647;DHT22;5880;52.342;9.662;2022-08-01T10:22:34;23.60;69.00
11647;DHT22;5880;52.342;9.662;2022-08-01T10:25:03;23.60;69.10
11647;DHT22;5880;52.342;9.662;2022-08-01T10:27:32;23.70;69.10
11647;DHT22;5880;52.342;9.662;2022-08-01T10:30:03;23.70;68.90
11647;DHT22;5880;52.342;9.662;2022-08-01T10:32:31;23.80;68.90
11647;DHT22;5880;52.342;9.662;2022-08-01T10:34:59;23.90;68.70
11647;DHT22;5880;52.342;9.662;2022-08-01T10:37:26;23.90;68.80
11647;DHT22;5880;52.342;9.662;2022-08-01T10:39:53;24.00;68.50
11647;DHT22;5880;52.342;9.662;2022-08-01T10:42:20;24.10;68.50
11647;DHT22;5880;52.342;9.662;2022-08-01T10:44:47;24.10;68.30
11647;DHT22;5880;52.342;9.662;2022-08-01T10:47:17;24.10;67.90
11647;DHT22;5880;52.342;9.662;2022-08-01T10:49:53;24.20;67.90
11647;DHT22;5880;52.342;9.662;2022-08-01T10:52:27;24.20;67.20
11647;DHT22;5880;52.342;9.662;2022-08-01T10:55:07;24.30;67.80
11647;DHT22;5880;52.342;9.662;2022-08-01T10:57:47;24.30;66.60
11647;DHT22;5880;52.342;9.662;2022-08-01T11:00:21;24.50;65.80
11647;DHT22;5880;52.342;9.662;2022-08-01T11:02:58;24.40;65.50
11647;DHT22;5880;52.342;9.662;2022-08-01T11:05:28;24.40;65.30
11647;DHT22;5880;52.342;9.662;2022-08-01T11:07:59;24.30;65.60
11647;DHT22;5880;52.342;9.662;2022-08-01T11:10:38;24.30;65.50
11647;DHT22;5880;52.342;9.662;2022-08-01T11:13:11;24.20;64.80
11647;DHT22;5880;52.342;9.662;2022-08-01T11:15:38;24.20;65.70
11647;DHT22;5880;52.342;9.662;2022-08-01T11:18:30;24.10;66.00
11647;DHT22;5880;52.342;9.662;2022-08-01T11:21:01;24.10;65.70
11647;DHT22;5880;52.342;9.662;2022-08-01T11:23:29;24.10;66.00
11647;DHT22;5880;52.342;9.662;2022-08-01T11:28:27;24.20;66.00
11647;DHT22;5880;52.342;9.662;2022-08-01T11:38:39;24.30;65.90
11647;DHT22;5880;52.342;9.662;2022-08-01T11:41:20;24.40;65.80
11647;DHT22;5880;52.342;9.662;2022-08-01T11:47:05;24.40;64.70
11647;DHT22;5880;52.342;9.662;2022-08-01T11:52:17;24.50;65.60
11647;DHT22;5880;52.342;9.662;2022-08-01T11:55:08;24.50;64.70
11647;DHT22;5880;52.342;9.662;2022-08-01T11:57:35;24.50;64.70
11647;DHT22;5880;52.342;9.662;2022-08-01T12:00:14;24.60;65.00
11647;DHT22;5880;52.342;9.662;2022-08-01T12:02:43;24.60;64.20
11647;DHT22;5880;52.342;9.662;2022-08-01T12:05:11;24.60;64.70
11647;DHT22;5880;52.342;9.662;2022-08-01T12:07:49;24.60;64.20
11647;DHT22;5880;52.342;9.662;2022-08-01T12:10:21;24.60;63.40
11647;DHT22;5880;52.342;9.662;2022-08-01T12:12:53;24.70;63.60
11647;DHT22;5880;52.342;9.662;2022-08-01T12:15:23;24.70;63.20
11647;DHT22;5880;52.342;9.662;2022-08-01T12:17:57;24.60;63.00
11647;DHT22;5880;52.342;9.662;2022-08-01T12:20:29;24.70;61.40
11647;DHT22;5880;52.342;9.662;2022-08-01T12:23:02;24.70;62.90
11647;DHT22;5880;52.342;9.662;2022-08-01T12:25:33;24.70;62.90
11647;DHT22;5880;52.342;9.662;2022-08-01T12:28:01;24.70;62.80
11647;DHT22;5880;52.342;9.662;2022-08-01T12:30:29;24.70;62.50
11647;DHT22;5880;52.342;9.662;2022-08-01T12:33:01;24.70;62.50
11647;DHT22;5880;52.342;9.662;2022-08-01T12:35:29;24.70;63.10
11647;DHT22;5880;52.342;9.662;2022-08-01T12:37:58;24.70;62.90
11647;DHT22;5880;52.342;9.662;2022-08-01T12:42:59;24.80;63.00
11647;DHT22;5880;52.342;9.662;2022-08-01T12:45:41;24.90;62.40
11647;DHT22;5880;52.342;9.662;2022-08-01T12:48:10;24.90;61.60
11647;DHT22;5880;52.342;9.662;2022-08-01T12:50:42;24.90;62.30
11647;DHT22;5880;52.342;9.662;2022-08-01T12:53:11;25.00;62.20
11647;DHT22;5880;52.342;9.662;2022-08-01T12:55:47;25.00;61.80
11647;DHT22;5880;52.342;9.662;2022-08-01T12:58:15;25.10;60.70
11647;DHT22;5880;52.342;9.662;2022-08-01T13:00:44;25.20;61.80
11647;DHT22;5880;52.342;9.662;2022-08-01T13:03:14;25.20;61.20
11647;DHT22;5880;52.342;9.662;2022-08-01T13:05:54;25.20;60.50
11647;DHT22;5880;52.342;9.662;2022-08-01T13:08:23;25.20;59.50
11647;DHT22;5880;52.342;9.662;2022-08-01T13:10:55;25.20;60.00
11647;DHT22;5880;52.342;9.662;2022-08-01T13:13:37;25.20;60.20
11647;DHT22;5880;52.342;9.662;2022-08-01T13:16:06;25.20;59.30
11647;DHT22;5880;52.342;9.662;2022-08-01T13:18:34;25.20;60.40
11647;DHT22;5880;52.342;9.662;2022-08-01T13:24:26;25.20;59.70
11647;DHT22;5880;52.342;9.662;2022-08-01T13:26:56;25.20;60.00
11647;DHT22;5880;52.342;9.662;2022-08-01T13:29:38;25.10;60.40
11647;DHT22;5880;52.342;9.662;2022-08-01T13:32:14;25.10;59.40
11647;DHT22;5880;52.342;9.662;2022-08-01T13:34:45;25.10;59.40
11647;DHT22;5880;52.342;9.662;2022-08-01T13:37:10;25.10;60.00
11647;DHT22;5880;52.342;9.662;2022-08-01T13:39:36;25.00;60.30
11647;DHT22;5880;52.342;9.662;2022-08-01T13:42:11;25.00;60.40
11647;DHT22;5880;52.342;9.662;2022-08-01T13:44:38;25.00;60.30
11647;DHT22;5880;52.342;9.662;2022-08-01T13:47:04;25.00;60.60
11647;DHT22;5880;52.342;9.662;2022-08-01T13:49:31;25.00;60.40
11647;DHT22;5880;52.342;9.662;2022-08-01T13:51:57;25.00;60.50
11647;DHT22;5880;52.342;9.662;2022-08-01T13:54:24;25.10;60.90
11647;DHT22;5880;52.342;9.662;2022-08-01T13:56:50;25.10;60.80
11647;DHT22;5880;52.342;9.662;2022-08-01T13:59:16;25.20;60.50
11647;DHT22;5880;52.342;9.662;2022-08-01T14:01:42;25.30;60.30
11647;DHT22;5880;52.342;9.662;2022-08-01T14:04:07;25.20;60.40
11647;DHT22;5880;52.342;9.662;2022-08-01T14:06:34;25.40;60.40
11647;DHT22;5880;52.342;9.662;2022-08-01T14:09:00;25.40;60.20
11647;DHT22;5880;52.342;9.662;2022-08-01T14:11:27;25.50;60.00
11647;DHT22;5880;52.342;9.662;2022-08-01T14:13:53;25.50;59.60
11647;DHT22;5880;52.342;9.662;2022-08-01T14:16:18;25.60;59.10
11647;DHT22;5880;52.342;9.662;2022-08-01T14:18:44;25.60;59.10
11647;DHT22;5880;52.342;9.662;2022-08-01T14:21:10;25.60;58.60
11647;DHT22;5880;52.342;9.662;2022-08-01T14:23:36;25.60;58.70
11647;DHT22;5880;52.342;9.662;2022-08-01T14:26:03;25.60;58.40
11647;DHT22;5880;52.342;9.662;2022-08-01T14:28:29;25.60;58.40
11647;DHT22;5880;52.342;9.662;2022-08-01T14:30:57;25.60;58.30
11647;DHT22;5880;52.342;9.662;2022-08-01T14:33:23;25.60;58.40
11647;DHT22;5880;52.342;9.662;2022-08-01T14:35:49;25.60;58.20
11647;DHT22;5880;52.342;9.662;2022-08-01T14:38:14;25.50;58.20
11647;DHT22;5880;52.342;9.662;2022-08-01T14:40:40;25.50;58.40
11647;DHT22;5880;52.342;9.662;2022-08-01T14:43:06;25.50;58.60
11647;DHT22;5880;52.342;9.662;2022-08-01T14:45:32;25.50;58.00
11647;DHT22;5880;52.342;9.662;2022-08-01T14:47:58;25.60;57.60
11647;DHT22;5880;52.342;9.662;2022-08-01T14:50:25;25.60;57.90
11647;DHT22;5880;52.342;9.662;2022-08-01T14:52:53;25.60;57.60
11647;DHT22;5880;52.342;9.662;2022-08-01T14:55:19;25.60;57.50
11647;DHT22;5880;52.342;9.662;2022-08-01T14:57:50;25.60;57.90
11647;DHT22;5880;52.342;9.662;2022-08-01T15:00:16;25.60;57.30
11647;DHT22;5880;52.342;9.662;2022-08-01T15:02:42;25.60;57.20
11647;DHT22;5880;52.342;9.662;2022-08-01T15:05:08;25.60;57.20
11647;DHT22;5880;52.342;9.662;2022-08-01T15:07:36;25.60;57.00
11647;DHT22;5880;52.342;9.662;2022-08-01T15:10:03;25.60;56.90
11647;DHT22;5880;52.342;9.662;2022-08-01T15:12:29;25.60;57.10
11647;DHT22;5880;52.342;9.662;2022-08-01T15:14:55;25.60;57.00
11647;DHT22;5880;52.342;9.662;2022-08-01T15:17:24;25.60;56.50
11647;DHT22;5880;52.342;9.662;2022-08-01T15:19:52;25.60;56.50
11647;DHT22;5880;52.342;9.662;2022-08-01T15:22:20;25.60;56.70
11647;DHT22;5880;52.342;9.662;2022-08-01T15:24:47;25.60;57.20
11647;DHT22;5880;52.342;9.662;2022-08-01T15:27:13;25.60;56.90
11647;DHT22;5880;52.342;9.662;2022-08-01T15:29:39;25.60;56.20
11647;DHT22;5880;52.342;9.662;2022-08-01T15:32:06;25.60;56.00
11647;DHT22;5880;52.342;9.662;2022-08-01T15:34:33;25.60;56.00
11647;DHT22;5880;52.342;9.662;2022-08-01T15:37:00;25.60;55.80
11647;DHT22;5880;52.342;9.662;2022-08-01T15:39:27;25.60;55.50
11647;DHT22;5880;52.342;9.662;2022-08-01T15:41:54;25.60;55.60
11647;DHT22;5880;52.342;9.662;2022-08-01T15:44:19;25.60;55.20
11647;DHT22;5880;52.342;9.662;2022-08-01T15:46:47;25.60;55.40
11647;DHT22;5880;52.342;9.662;2022-08-01T15:49:14;25.60;55.70
11647;DHT22;5880;52.342;9.662;2022-08-01T15:51:40;25.60;55.30
11647;DHT22;5880;52.342;9.662;2022-08-01T15:54:07;25.60;56.00
11647;DHT22;5880;52.342;9.662;2022-08-01T15:56:33;25.60;55.50
11647;DHT22;5880;52.342;9.662;2022-08-01T15:58:59;25.60;55.00
11647;DHT22;5880;52.342;9.662;2022-08-01T16:01:25;25.60;55.10
11647;DHT22;5880;52.342;9.662;2022-08-01T16:03:55;25.60;55.10
11647;DHT22;5880;52.342;9.662;2022-08-01T16:06:22;25.60;54.60
11647;DHT22;5880;52.342;9.662;2022-08-01T16:08:48;25.60;54.80
11647;DHT22;5880;52.342;9.662;2022-08-01T16:11:15;25.60;54.80
11647;DHT22;5880;52.342;9.662;2022-08-01T16:13:41;25.60;54.70
11647;DHT22;5880;52.342;9.662;2022-08-01T16:16:08;25.60;54.70
11647;DHT22;5880;52.342;9.662;2022-08-01T16:18:34;25.60;54.90
11647;DHT22;5880;52.342;9.662;2022-08-01T16:21:00;25.60;54.70
11647;DHT22;5880;52.342;9.662;2022-08-01T16:23:26;25.60;54.30
11647;DHT22;5880;52.342;9.662;2022-08-01T16:25:52;25.50;54.40
11647;DHT22;5880;52.342;9.662;2022-08-01T16:28:19;25.50;54.30
11647;DHT22;5880;52.342;9.662;2022-08-01T16:30:45;25.50;53.90
11647;DHT22;5880;52.342;9.662;2022-08-01T16:33:11;25.50;53.80